sensor_id;sensor_type;location;lat;lon;timestamp;temperature;humidity
72602;DHT22;60644;55.858;37.390;2022-12-07T00:01:39;-5.20;44.20
72602;DHT22;60644;55.858;37.390;2022-12-07T00:04:07;-5.20;47.01
72602;DHT22;60644;55.858;37.390;2022-12-07T00:06:37;-5.23;44.93
72602;DHT22;60644;55.858;37.390;2022-12-07T00:09:05;-5.27;44.64
72602;DHT22;60644;55.858;37.390;2022-12-07T00:11:31;-5.20;46.27
72602;DHT22;60644;55.858;37.390;2022-12-07T00:13:59;-5.18;46.25
72602;DHT22;60644;55.858;37.390;2022-12-07T00:16:28;-5.19;44.39
72602;DHT22;60644;55.858;37.390;2022-12-07T00:18:54;-5.23;43.06
72602;DHT22;60644;55.858;37.390;2022-12-07T00:21:22;-5.23;43.55
72602;DHT22;60644;55.858;37.390;2022-12-07T00:23:50;-5.25;43.50
72602;DHT22;60644;55.858;37.390;2022-12-07T00:26:19;-5.25;45.35
72602;DHT22;60644;55.858;37.390;2022-12-07T00:28:49;-5.41;42.74
72602;DHT22;60644;55.858;37.390;2022-12-07T00:31:18;-5.42;45.28
72602;DHT22;60644;55.858;37.390;2022-12-07T00:33:44;-5.42;45.87
72602;DHT22;60644;55.858;37.390;2022-12-07T00:36:12;-5.37;46.46
72602;DHT22;60644;55.858;37.390;2022-12-07T00:38:39;-5.38;45.40
72602;DHT22;60644;55.858;37.390;2022-12-07T00:41:10;-5.34;45.71
72602;DHT22;60644;55.858;37.390;2022-12-07T00:43:36;-5.35;44.81
72602;DHT22;60644;55.858;37.390;2022-12-07T00:46:03;-5.32;46.76
72602;DHT22;60644;55.858;37.390;2022-12-07T00:48:29;-5.33;46.09
72602;DHT22;60644;55.858;37.390;2022-12-07T00:50:55;-5.35;45.05
72602;DHT22;60644;55.858;37.390;2022-12-07T00:53:21;-5.35;46.22
72602;DHT22;60644;55.858;37.390;2022-12-07T00:55:48;-5.37;44.91
72602;DHT22;60644;55.858;37.390;2022-12-07T00:58:14;-5.42;44.57
72602;DHT22;60644;55.858;37.390;2022-12-07T01:00:41;-5.43;45.10
72602;DHT22;60644;55.858;37.390;2022-12-07T01:03:09;-5.44;45.22
72602;DHT22;60644;55.858;37.390;2022-12-07T01:05:35;-5.49;44.35
72602;DHT22;60644;55.858;37.390;2022-12-07T01:08:02;-5.53;45.33
72602;DHT22;60644;55.858;37.390;2022-12-07T01:10:28;-5.55;44.43
72602;DHT22;60644;55.858;37.390;2022-12-07T01:12:56;-5.59;44.37
72602;DHT22;60644;55.858;37.390;2022-12-07T01:15:22;-5.59;44.53
72602;DHT22;60644;55.858;37.390;2022-12-07T01:17:47;-5.57;45.52
72602;DHT22;60644;55.858;37.390;2022-12-07T01:20:13;-5.62;44.18
72602;DHT22;60644;55.858;37.390;2022-12-07T01:22:42;-5.61;44.55
72602;DHT22;60644;55.858;37.390;2022-12-07T01:25:10;-5.61;45.42
72602;DHT22;60644;55.858;37.390;2022-12-07T01:27:36;-5.65;43.35
72602;DHT22;60644;55.858;37.390;2022-12-07T01:30:05;-5.63;45.38
72602;DHT22;60644;55.858;37.390;2022-12-07T01:32:31;-5.60;45.15
72602;DHT22;60644;55.858;37.390;2022-12-07T01:34:57;-5.60;44.19
72602;DHT22;60644;55.858;37.390;2022-12-07T01:37:23;-5.57;45.93
72602;DHT22;60644;55.858;37.390;2022-12-07T01:39:50;-5.64;44.74
72602;DHT22;60644;55.858;37.390;2022-12-07T01:42:18;-5.61;45.34
72602;DHT22;60644;55.858;37.390;2022-12-07T01:47:48;-5.68;44.76
72602;DHT22;60644;55.858;37.390;2022-12-07T01:50:16;-5.68;46.14
72602;DHT22;60644;55.858;37.390;2022-12-07T01:52:43;-5.73;44.67
72602;DHT22;60644;55.858;37.390;2022-12-07T01:55:12;-5.73;46.19
72602;DHT22;60644;55.858;37.390;2022-12-07T01:57:46;-5.76;44.84
72602;DHT22;60644;55.858;37.390;2022-12-07T02:00:13;-5.73;46.44
72602;DHT22;60644;55.858;37.390;2022-12-07T02:02:51;-5.77;45.27
72602;DHT22;60644;55.858;37.390;2022-12-07T02:05:19;-5.79;45.99
72602;DHT22;60644;55.858;37.390;2022-12-07T02:07:46;-5.83;47.18
72602;DHT22;60644;55.858;37.390;2022-12-07T02:10:22;-5.86;44.51
72602;DHT22;60644;55.858;37.390;2022-12-07T02:12:52;-5.90;43.66
72602;DHT22;60644;55.858;37.390;2022-12-07T02:27:37;-5.91;45.28
72602;DHT22;60644;55.858;37.390;2022-12-07T02:35:17;-5.88;45.51
72602;DHT22;60644;55.858;37.390;2022-12-07T02:38:08;-5.86;45.69
72602;DHT22;60644;55.858;37.390;2022-12-07T02:41:00;-5.83;45.76
72602;DHT22;60644;55.858;37.390;2022-12-07T02:43:33;-5.83;45.67
72602;DHT22;60644;55.858;37.390;2022-12-07T02:46:05;-5.78;45.96
72602;DHT22;60644;55.858;37.390;2022-12-07T02:48:34;-5.92;44.39
72602;DHT22;60644;55.858;37.390;2022-12-07T02:51:01;-5.90;45.42
72602;DHT22;60644;55.858;37.390;2022-12-07T02:53:36;-5.90;45.35
72602;DHT22;60644;55.858;37.390;2022-12-07T03:08:02;-5.77;46.51
72602;DHT22;60644;55.858;37.390;2022-12-07T03:17:00;-5.84;46.28
72602;DHT22;60644;55.858;37.390;2022-12-07T03:19:19;-5.87;45.28
72602;DHT22;60644;55.858;37.390;2022-12-07T03:21:51;-5.82;46.43
72602;DHT22;60644;55.858;37.390;2022-12-07T03:24:21;-5.79;46.09
72602;DHT22;60644;55.858;37.390;2022-12-07T03:26:56;-5.83;46.01
72602;DHT22;60644;55.858;37.390;2022-12-07T03:29:28;-5.86;45.51
72602;DHT22;60644;55.858;37.390;2022-12-07T03:32:08;-5.88;45.28
72602;DHT22;60644;55.858;37.390;2022-12-07T03:34:50;-6.02;44.60
72602;DHT22;60644;55.858;37.390;2022-12-07T03:37:18;-6.00;45.67
72602;DHT22;60644;55.858;37.390;2022-12-07T03:42:20;-5.97;45.61
72602;DHT22;60644;55.858;37.390;2022-12-07T03:44:46;-5.91;45.91
72602;DHT22;60644;55.858;37.390;2022-12-07T03:49:59;-5.79;46.24
72602;DHT22;60644;55.858;37.390;2022-12-07T03:52:56;-5.81;45.45
72602;DHT22;60644;55.858;37.390;2022-12-07T03:55:30;-5.84;46.09
72602;DHT22;60644;55.858;37.390;2022-12-07T03:58:03;-5.85;45.69
72602;DHT22;60644;55.858;37.390;2022-12-07T04:00:30;-5.81;45.61
72602;DHT22;60644;55.858;37.390;2022-12-07T04:02:56;-5.84;45.11
72602;DHT22;60644;55.858;37.390;2022-12-07T04:05:23;-5.83;46.12
72602;DHT22;60644;55.858;37.390;2022-12-07T04:07:48;-5.89;45.44
72602;DHT22;60644;55.858;37.390;2022-12-07T04:10:14;-5.84;46.90
72602;DHT22;60644;55.858;37.390;2022-12-07T04:12:40;-5.83;46.49
72602;DHT22;60644;55.858;37.390;2022-12-07T04:15:07;-5.79;46.09
72602;DHT22;60644;55.858;37.390;2022-12-07T04:17:33;-5.82;46.01
72602;DHT22;60644;55.858;37.390;2022-12-07T04:19:59;-5.82;46.65
72602;DHT22;60644;55.858;37.390;2022-12-07T04:22:25;-5.77;46.62
72602;DHT22;60644;55.858;37.390;2022-12-07T04:24:50;-5.77;46.57
72602;DHT22;60644;55.858;37.390;2022-12-07T04:27:16;-5.78;46.70
72602;DHT22;60644;55.858;37.390;2022-12-07T04:29:42;-5.73;47.15
72602;DHT22;60644;55.858;37.390;2022-12-07T04:32:08;-5.71;47.05
72602;DHT22;60644;55.858;37.390;2022-12-07T04:34:34;-5.71;47.01
72602;DHT22;60644;55.858;37.390;2022-12-07T04:36:59;-5.73;47.76
72602;DHT22;60644;55.858;37.390;2022-12-07T04:39:32;-5.75;47.24
72602;DHT22;60644;55.858;37.390;2022-12-07T04:41:59;-5.79;46.93
72602;DHT22;60644;55.858;37.390;2022-12-07T04:44:26;-5.77;47.00
72602;DHT22;60644;55.858;37.390;2022-12-07T04:46:54;-5.78;47.47
72602;DHT22;60644;55.858;37.390;2022-12-07T04:49:20;-5.78;47.57
72602;DHT22;60644;55.858;37.390;2022-12-07T04:51:47;-5.78;47.68
72602;DHT22;60644;55.858;37.390;2022-12-07T04:54:14;-5.77;47.54
72602;DHT22;60644;55.858;37.390;2022-12-07T04:56:40;-5.73;47.82
72602;DHT22;60644;55.858;37.390;2022-12-07T04:59:07;-5.75;47.81
72602;DHT22;60644;55.858;37.390;2022-12-07T05:01:33;-5.77;47.82
72602;DHT22;60644;55.858;37.390;2022-12-07T05:03:59;-5.75;47.89
72602;DHT22;60644;55.858;37.390;2022-12-07T05:06:25;-5.73;47.99
72602;DHT22;60644;55.858;37.390;2022-12-07T05:08:51;-5.71;48.38
72602;DHT22;60644;55.858;37.390;2022-12-07T05:11:18;-5.65;48.54
72602;DHT22;60644;55.858;37.390;2022-12-07T05:14:03;-5.57;48.16
72602;DHT22;60644;55.858;37.390;2022-12-07T05:16:29;-5.53;48.57
72602;DHT22;60644;55.858;37.390;2022-12-07T05:18:56;-5.48;47.80
72602;DHT22;60644;55.858;37.390;2022-12-07T05:21:21;-5.50;47.54
72602;DHT22;60644;55.858;37.390;2022-12-07T05:23:47;-5.56;47.58
72602;DHT22;60644;55.858;37.390;2022-12-07T05:26:13;-5.52;48.14
72602;DHT22;60644;55.858;37.390;2022-12-07T05:28:39;-5.54;47.33
72602;DHT22;60644;55.858;37.390;2022-12-07T05:31:05;-5.53;47.98
72602;DHT22;60644;55.858;37.390;2022-12-07T05:33:32;-5.49;48.44
72602;DHT22;60644;55.858;37.390;2022-12-07T05:35:57;-5.45;47.92
72602;DHT22;60644;55.858;37.390;2022-12-07T05:38:23;-5.41;48.02
72602;DHT22;60644;55.858;37.390;2022-12-07T05:40:50;-5.40;48.14
72602;DHT22;60644;55.858;37.390;2022-12-07T05:43:16;-5.39;48.31
72602;DHT22;60644;55.858;37.390;2022-12-07T05:45:42;-5.39;48.00
72602;DHT22;60644;55.858;37.390;2022-12-07T05:48:08;-5.40;48.25
72602;DHT22;60644;55.858;37.390;2022-12-07T05:50:33;-5.41;48.14
72602;DHT22;60644;55.858;37.390;2022-12-07T05:53:00;-5.41;48.22
72602;DHT22;60644;55.858;37.390;2022-12-07T05:55:26;-5.42;48.06
72602;DHT22;60644;55.858;37.390;2022-12-07T05:57:51;-5.43;48.10
72602;DHT22;60644;55.858;37.390;2022-12-07T06:00:56;-5.43;48.32
72602;DHT22;60644;55.858;37.390;2022-12-07T06:03:21;-5.43;48.53
72602;DHT22;60644;55.858;37.390;2022-12-07T06:05:48;-5.45;48.18
72602;DHT22;60644;55.858;37.390;2022-12-07T06:08:14;-5.47;48.47
72602;DHT22;60644;55.858;37.390;2022-12-07T06:10:41;-5.46;48.95
72602;DHT22;60644;55.858;37.390;2022-12-07T06:13:08;-5.44;48.94
72602;DHT22;60644;55.858;37.390;2022-12-07T06:15:37;-5.42;48.72
72602;DHT22;60644;55.858;37.390;2022-12-07T06:18:06;-5.40;48.81
72602;DHT22;60644;55.858;37.390;2022-12-07T06:20:32;-5.39;49.11
72602;DHT22;60644;55.858;37.390;2022-12-07T06:22:57;-5.40;48.80
72602;DHT22;60644;55.858;37.390;2022-12-07T06:25:23;-5.40;48.89
72602;DHT22;60644;55.858;37.390;2022-12-07T06:27:49;-5.35;49.49
72602;DHT22;60644;55.858;37.390;2022-12-07T06:30:15;-5.38;49.15
72602;DHT22;60644;55.858;37.390;2022-12-07T06:32:41;-5.37;49.66
72602;DHT22;60644;55.858;37.390;2022-12-07T06:35:07;-5.37;50.02
72602;DHT22;60644;55.858;37.390;2022-12-07T06:37:33;-5.40;49.69
72602;DHT22;60644;55.858;37.390;2022-12-07T06:39:59;-5.40;49.64
72602;DHT22;60644;55.858;37.390;2022-12-07T06:42:24;-5.39;49.76
72602;DHT22;60644;55.858;37.390;2022-12-07T06:44:50;-5.37;49.83
72602;DHT22;60644;55.858;37.390;2022-12-07T06:47:16;-5.33;50.05
72602;DHT22;60644;55.858;37.390;2022-12-07T06:49:42;-5.33;49.98
72602;DHT22;60644;55.858;37.390;2022-12-07T06:52:08;-5.32;50.20
72602;DHT22;60644;55.858;37.390;2022-12-07T06:54:33;-5.29;50.18
72602;DHT22;60644;55.858;37.390;2022-12-07T06:56:59;-5.29;50.27
72602;DHT22;60644;55.858;37.390;2022-12-07T06:59:25;-5.30;50.63
72602;DHT22;60644;55.858;37.390;2022-12-07T07:01:51;-5.29;50.63
72602;DHT22;60644;55.858;37.390;2022-12-07T07:04:17;-5.32;50.74
72602;DHT22;60644;55.858;37.390;2022-12-07T07:06:43;-5.29;50.99
72602;DHT22;60644;55.858;37.390;2022-12-07T07:09:09;-5.30;51.02
72602;DHT22;60644;55.858;37.390;2022-12-07T07:11:35;-5.28;51.41
72602;DHT22;60644;55.858;37.390;2022-12-07T07:14:01;-5.30;51.31
72602;DHT22;60644;55.858;37.390;2022-12-07T07:16:29;-5.31;51.33
72602;DHT22;60644;55.858;37.390;2022-12-07T07:18:56;-5.30;51.37
72602;DHT22;60644;55.858;37.390;2022-12-07T07:21:22;-5.31;51.59
72602;DHT22;60644;55.858;37.390;2022-12-07T07:23:48;-5.28;51.42
72602;DHT22;60644;55.858;37.390;2022-12-07T07:26:14;-5.24;51.58
72602;DHT22;60644;55.858;37.390;2022-12-07T07:28:40;-5.26;51.47
72602;DHT22;60644;55.858;37.390;2022-12-07T07:31:06;-5.27;51.50
72602;DHT22;60644;55.858;37.390;2022-12-07T07:33:32;-5.24;51.47
72602;DHT22;60644;55.858;37.390;2022-12-07T07:35:57;-5.20;51.43
72602;DHT22;60644;55.858;37.390;2022-12-07T07:38:23;-5.13;51.34
72602;DHT22;60644;55.858;37.390;2022-12-07T07:40:49;-5.11;51.11
72602;DHT22;60644;55.858;37.390;2022-12-07T07:43:15;-5.05;51.24
72602;DHT22;60644;55.858;37.390;2022-12-07T07:45:41;-5.03;50.86
72602;DHT22;60644;55.858;37.390;2022-12-07T07:48:07;-5.01;50.86
72602;DHT22;60644;55.858;37.390;2022-12-07T07:50:32;-4.97;51.01
72602;DHT22;60644;55.858;37.390;2022-12-07T07:52:58;-4.87;51.30
72602;DHT22;60644;55.858;37.390;2022-12-07T07:55:24;-4.87;50.60
72602;DHT22;60644;55.858;37.390;2022-12-07T07:57:50;-4.84;50.42
72602;DHT22;60644;55.858;37.390;2022-12-07T08:00:16;-4.85;50.45
72602;DHT22;60644;55.858;37.390;2022-12-07T08:02:43;-4.87;50.15
72602;DHT22;60644;55.858;37.390;2022-12-07T08:05:10;-4.88;50.41
72602;DHT22;60644;55.858;37.390;2022-12-07T08:07:36;-4.87;50.43
72602;DHT22;60644;55.858;37.390;2022-12-07T08:10:03;-4.84;50.30
72602;DHT22;60644;55.858;37.390;2022-12-07T08:12:29;-4.78;50.33
72602;DHT22;60644;55.858;37.390;2022-12-07T08:14:55;-4.79;49.77
72602;DHT22;60644;55.858;37.390;2022-12-07T08:17:21;-4.83;49.26
72602;DHT22;60644;55.858;37.390;2022-12-07T08:19:47;-4.86;49.88
72602;DHT22;60644;55.858;37.390;2022-12-07T08:22:13;-4.88;49.38
72602;DHT22;60644;55.858;37.390;2022-12-07T08:24:38;-4.87;49.69
72602;DHT22;60644;55.858;37.390;2022-12-07T08:27:04;-4.81;50.15
72602;DHT22;60644;55.858;37.390;2022-12-07T08:29:30;-4.80;49.94
72602;DHT22;60644;55.858;37.390;2022-12-07T08:31:56;-4.82;49.53
72602;DHT22;60644;55.858;37.390;2022-12-07T08:34:22;-4.80;50.02
72602;DHT22;60644;55.858;37.390;2022-12-07T08:36:48;-4.81;49.55
72602;DHT22;60644;55.858;37.390;2022-12-07T08:39:13;-4.84;49.53
72602;DHT22;60644;55.858;37.390;2022-12-07T08:41:39;-4.86;49.69
72602;DHT22;60644;55.858;37.390;2022-12-07T08:44:05;-4.86;50.14
72602;DHT22;60644;55.858;37.390;2022-12-07T08:46:41;-4.88;49.79
72602;DHT22;60644;55.858;37.390;2022-12-07T08:49:13;-4.89;49.96
72602;DHT22;60644;55.858;37.390;2022-12-07T08:51:40;-4.88;49.84
72602;DHT22;60644;55.858;37.390;2022-12-07T08:54:10;-4.85;50.30
72602;DHT22;60644;55.858;37.390;2022-12-07T08:56:36;-4.85;49.91
72602;DHT22;60644;55.858;37.390;2022-12-07T08:59:03;-4.89;49.78
72602;DHT22;60644;55.858;37.390;2022-12-07T09:01:30;-4.90;49.21
72602;DHT22;60644;55.858;37.390;2022-12-07T09:03:55;-4.84;50.25
72602;DHT22;60644;55.858;37.390;2022-12-07T09:06:21;-4.81;50.05
72602;DHT22;60644;55.858;37.390;2022-12-07T09:08:50;-4.75;50.06
72602;DHT22;60644;55.858;37.390;2022-12-07T09:11:17;-4.75;49.44
72602;DHT22;60644;55.858;37.390;2022-12-07T09:13:43;-4.72;49.67
72602;DHT22;60644;55.858;37.390;2022-12-07T09:16:08;-4.76;49.28
72602;DHT22;60644;55.858;37.390;2022-12-07T09:18:34;-4.72;49.96
72602;DHT22;60644;55.858;37.390;2022-12-07T09:21:00;-4.84;48.30
72602;DHT22;60644;55.858;37.390;2022-12-07T09:23:26;-4.75;49.50
72602;DHT22;60644;55.858;37.390;2022-12-07T09:25:52;-4.72;49.45
72602;DHT22;60644;55.858;37.390;2022-12-07T09:28:17;-4.72;49.61
72602;DHT22;60644;55.858;37.390;2022-12-07T09:30:47;-4.61;49.80
72602;DHT22;60644;55.858;37.390;2022-12-07T09:33:14;-4.59;48.70
72602;DHT22;60644;55.858;37.390;2022-12-07T09:35:47;-4.63;48.78
72602;DHT22;60644;55.858;37.390;2022-12-07T09:38:14;-4.67;48.70
72602;DHT22;60644;55.858;37.390;2022-12-07T09:40:40;-4.67;47.92
72602;DHT22;60644;55.858;37.390;2022-12-07T09:43:21;-4.68;47.84
72602;DHT22;60644;55.858;37.390;2022-12-07T09:45:53;-4.72;47.62
72602;DHT22;60644;55.858;37.390;2022-12-07T09:48:22;-4.67;49.21
72602;DHT22;60644;55.858;37.390;2022-12-07T09:50:52;-4.67;48.01
72602;DHT22;60644;55.858;37.390;2022-12-07T09:53:26;-4.60;48.30
72602;DHT22;60644;55.858;37.390;2022-12-07T09:55:53;-4.55;49.10
72602;DHT22;60644;55.858;37.390;2022-12-07T09:58:25;-4.44;48.98
72602;DHT22;60644;55.858;37.390;2022-12-07T10:00:55;-4.42;47.70
72602;DHT22;60644;55.858;37.390;2022-12-07T10:03:22;-4.50;46.22
72602;DHT22;60644;55.858;37.390;2022-12-07T10:05:50;-4.55;46.99
72602;DHT22;60644;55.858;37.390;2022-12-07T10:08:17;-4.53;47.89
72602;DHT22;60644;55.858;37.390;2022-12-07T10:10:43;-4.52;48.40
72602;DHT22;60644;55.858;37.390;2022-12-07T10:13:13;-4.48;48.44
72602;DHT22;60644;55.858;37.390;2022-12-07T10:15:56;-4.50;47.46
72602;DHT22;60644;55.858;37.390;2022-12-07T10:18:42;-4.51;46.77
72602;DHT22;60644;55.858;37.390;2022-12-07T10:24:05;-4.44;47.86
72602;DHT22;60644;55.858;37.390;2022-12-07T10:26:50;-4.43;48.20
72602;DHT22;60644;55.858;37.390;2022-12-07T10:29:22;-4.42;47.50
72602;DHT22;60644;55.858;37.390;2022-12-07T10:31:57;-4.37;46.97
72602;DHT22;60644;55.858;37.390;2022-12-07T10:34:26;-4.36;47.06
72602;DHT22;60644;55.858;37.390;2022-12-07T10:37:27;-4.35;48.12
72602;DHT22;60644;55.858;37.390;2022-12-07T10:39:55;-4.36;46.69
72602;DHT22;60644;55.858;37.390;2022-12-07T10:42:23;-4.37;47.12
72602;DHT22;60644;55.858;37.390;2022-12-07T10:45:35;-4.39;47.95
72602;DHT22;60644;55.858;37.390;2022-12-07T10:48:04;-4.42;46.97
72602;DHT22;60644;55.858;37.390;2022-12-07T11:02:14;-4.42;46.30
72602;DHT22;60644;55.858;37.390;2022-12-07T11:08:18;-4.30;46.93
72602;DHT22;60644;55.858;37.390;2022-12-07T11:21:56;-4.22;47.45
72602;DHT22;60644;55.858;37.390;2022-12-07T11:24:28;-4.22;47.50
72602;DHT22;60644;55.858;37.390;2022-12-07T11:27:14;-4.14;47.47
72602;DHT22;60644;55.858;37.390;2022-12-07T11:30:16;-4.12;46.97
72602;DHT22;60644;55.858;37.390;2022-12-07T11:33:01;-4.14;46.29
72602;DHT22;60644;55.858;37.390;2022-12-07T11:35:36;-3.64;47.23
72602;DHT22;60644;55.858;37.390;2022-12-07T11:38:14;-3.07;48.20
72602;DHT22;60644;55.858;37.390;2022-12-07T11:40:45;-2.67;44.87
72602;DHT22;60644;55.858;37.390;2022-12-07T11:43:25;-2.24;45.64
72602;DHT22;60644;55.858;37.390;2022-12-07T11:46:06;-1.85;44.05
72602;DHT22;60644;55.858;37.390;2022-12-07T11:48:38;-1.64;43.97
72602;DHT22;60644;55.858;37.390;2022-12-07T11:51:06;-1.35;44.73
72602;DHT22;60644;55.858;37.390;2022-12-07T11:53:37;-1.17;41.98
72602;DHT22;60644;55.858;37.390;2022-12-07T11:56:14;-1.04;42.36
72602;DHT22;60644;55.858;37.390;2022-12-07T11:59:19;-1.11;42.29
72602;DHT22;60644;55.858;37.390;2022-12-07T12:01:57;-1.62;44.93
72602;DHT22;60644;55.858;37.390;2022-12-07T12:07:06;-2.14;46.26
72602;DHT22;60644;55.858;37.390;2022-12-07T12:09:36;-2.27;42.58
72602;DHT22;60644;55.858;37.390;2022-12-07T12:15:26;-2.16;43.40
72602;DHT22;60644;55.858;37.390;2022-12-07T12:23:20;-2.16;45.12
72602;DHT22;60644;55.858;37.390;2022-12-07T12:25:50;-2.30;42.26
72602;DHT22;60644;55.858;37.390;2022-12-07T12:29:19;-2.59;44.70
72602;DHT22;60644;55.858;37.390;2022-12-07T12:34:02;-3.41;44.87
72602;DHT22;60644;55.858;37.390;2022-12-07T12:46:55;-4.37;47.87
72602;DHT22;60644;55.858;37.390;2022-12-07T12:51:56;-4.64;47.92
72602;DHT22;60644;55.858;37.390;2022-12-07T12:54:28;-4.73;48.24
72602;DHT22;60644;55.858;37.390;2022-12-07T12:57:13;-4.83;48.63
72602;DHT22;60644;55.858;37.390;2022-12-07T12:59:42;-4.89;49.26
72602;DHT22;60644;55.858;37.390;2022-12-07T13:02:36;-4.93;49.16
72602;DHT22;60644;55.858;37.390;2022-12-07T13:13:04;-5.19;50.15
72602;DHT22;60644;55.858;37.390;2022-12-07T13:15:41;-5.23;50.24
72602;DHT22;60644;55.858;37.390;2022-12-07T13:23:51;-5.43;50.46
72602;DHT22;60644;55.858;37.390;2022-12-07T13:29:04;-5.47;50.95
72602;DHT22;60644;55.858;37.390;2022-12-07T13:33:57;-5.49;51.00
72602;DHT22;60644;55.858;37.390;2022-12-07T13:36:27;-5.50;51.08
72602;DHT22;60644;55.858;37.390;2022-12-07T13:38:58;-5.55;51.29
72602;DHT22;60644;55.858;37.390;2022-12-07T13:41:27;-5.56;51.40
72602;DHT22;60644;55.858;37.390;2022-12-07T13:44:00;-5.57;51.46
72602;DHT22;60644;55.858;37.390;2022-12-07T13:49:18;-5.63;51.82
72602;DHT22;60644;55.858;37.390;2022-12-07T13:51:44;-5.64;51.84
72602;DHT22;60644;55.858;37.390;2022-12-07T13:54:11;-5.67;51.86
72602;DHT22;60644;55.858;37.390;2022-12-07T13:56:38;-5.69;52.03
72602;DHT22;60644;55.858;37.390;2022-12-07T13:59:13;-5.77;52.24
72602;DHT22;60644;55.858;37.390;2022-12-07T14:01:39;-5.85;52.46
72602;DHT22;60644;55.858;37.390;2022-12-07T14:04:34;-5.87;52.73
72602;DHT22;60644;55.858;37.390;2022-12-07T14:07:18;-5.87;52.65
72602;DHT22;60644;55.858;37.390;2022-12-07T14:10:03;-5.93;52.88
72602;DHT22;60644;55.858;37.390;2022-12-07T14:12:32;-5.91;52.82
72602;DHT22;60644;55.858;37.390;2022-12-07T14:15:01;-6.00;52.99
72602;DHT22;60644;55.858;37.390;2022-12-07T14:17:29;-6.00;52.74
72602;DHT22;60644;55.858;37.390;2022-12-07T14:20:00;-5.97;52.67
72602;DHT22;60644;55.858;37.390;2022-12-07T14:27:39;-5.94;52.43
72602;DHT22;60644;55.858;37.390;2022-12-07T14:30:16;-5.98;52.56
72602;DHT22;60644;55.858;37.390;2022-12-07T14:32:43;-5.99;52.56
72602;DHT22;60644;55.858;37.390;2022-12-07T14:35:16;-6.00;52.64
72602;DHT22;60644;55.858;37.390;2022-12-07T14:37:44;-5.98;52.64
72602;DHT22;60644;55.858;37.390;2022-12-07T14:40:18;-5.96;52.71
72602;DHT22;60644;55.858;37.390;2022-12-07T14:42:46;-5.98;52.60
72602;DHT22;60644;55.858;37.390;2022-12-07T14:45:15;-5.97;52.66
72602;DHT22;60644;55.858;37.390;2022-12-07T14:47:43;-5.96;52.74
72602;DHT22;60644;55.858;37.390;2022-12-07T14:50:12;-5.96;52.84
72602;DHT22;60644;55.858;37.390;2022-12-07T14:52:39;-5.98;52.74
72602;DHT22;60644;55.858;37.390;2022-12-07T14:55:13;-5.94;52.65
72602;DHT22;60644;55.858;37.390;2022-12-07T14:57:39;-5.92;52.56
72602;DHT22;60644;55.858;37.390;2022-12-07T15:00:06;-5.93;52.57
72602;DHT22;60644;55.858;37.390;2022-12-07T15:02:32;-5.96;52.79
72602;DHT22;60644;55.858;37.390;2022-12-07T15:04:58;-5.96;52.78
72602;DHT22;60644;55.858;37.390;2022-12-07T15:07:23;-5.97;52.58
72602;DHT22;60644;55.858;37.390;2022-12-07T15:09:50;-6.03;52.89
72602;DHT22;60644;55.858;37.390;2022-12-07T15:12:16;-6.04;52.94
72602;DHT22;60644;55.858;37.390;2022-12-07T15:14:42;-6.14;53.10
72602;DHT22;60644;55.858;37.390;2022-12-07T15:17:11;-6.13;53.13
72602;DHT22;60644;55.858;37.390;2022-12-07T15:19:37;-6.14;53.48
72602;DHT22;60644;55.858;37.390;2022-12-07T15:22:03;-6.16;53.61
72602;DHT22;60644;55.858;37.390;2022-12-07T15:24:30;-6.15;53.36
72602;DHT22;60644;55.858;37.390;2022-12-07T15:26:55;-6.12;53.46
72602;DHT22;60644;55.858;37.390;2022-12-07T15:29:22;-6.15;53.59
72602;DHT22;60644;55.858;37.390;2022-12-07T15:31:49;-6.12;53.35
72602;DHT22;60644;55.858;37.390;2022-12-07T15:34:15;-6.13;53.84
72602;DHT22;60644;55.858;37.390;2022-12-07T15:36:41;-6.13;53.53
72602;DHT22;60644;55.858;37.390;2022-12-07T15:39:07;-6.15;53.52
72602;DHT22;60644;55.858;37.390;2022-12-07T15:41:35;-6.14;53.72
72602;DHT22;60644;55.858;37.390;2022-12-07T15:44:00;-6.13;53.63
72602;DHT22;60644;55.858;37.390;2022-12-07T15:46:45;-6.12;53.59
72602;DHT22;60644;55.858;37.390;2022-12-07T15:49:13;-6.06;53.48
72602;DHT22;60644;55.858;37.390;2022-12-07T15:51:41;-6.06;53.71
72602;DHT22;60644;55.858;37.390;2022-12-07T15:54:07;-6.13;53.91
72602;DHT22;60644;55.858;37.390;2022-12-07T15:56:34;-6.13;53.81
72602;DHT22;60644;55.858;37.390;2022-12-07T15:59:00;-6.11;53.90
72602;DHT22;60644;55.858;37.390;2022-12-07T16:01:25;-6.09;53.88
72602;DHT22;60644;55.858;37.390;2022-12-07T16:03:51;-6.16;54.26
72602;DHT22;60644;55.858;37.390;2022-12-07T16:06:18;-6.12;54.06
72602;DHT22;60644;55.858;37.390;2022-12-07T16:08:45;-6.16;54.39
72602;DHT22;60644;55.858;37.390;2022-12-07T16:11:11;-6.21;54.68
72602;DHT22;60644;55.858;37.390;2022-12-07T16:13:37;-6.17;53.98
72602;DHT22;60644;55.858;37.390;2022-12-07T16:16:06;-6.20;54.51
72602;DHT22;60644;55.858;37.390;2022-12-07T16:18:33;-6.19;54.44
72602;DHT22;60644;55.858;37.390;2022-12-07T16:20:59;-6.16;54.77
72602;DHT22;60644;55.858;37.390;2022-12-07T16:23:25;-6.16;54.58
72602;DHT22;60644;55.858;37.390;2022-12-07T16:25:51;-6.13;54.70
72602;DHT22;60644;55.858;37.390;2022-12-07T16:28:17;-6.12;54.62
72602;DHT22;60644;55.858;37.390;2022-12-07T16:30:43;-6.11;54.62
72602;DHT22;60644;55.858;37.390;2022-12-07T16:33:10;-6.08;54.57
72602;DHT22;60644;55.858;37.390;2022-12-07T16:35:40;-6.09;54.56
72602;DHT22;60644;55.858;37.390;2022-12-07T16:38:06;-6.11;54.79
72602;DHT22;60644;55.858;37.390;2022-12-07T16:40:32;-6.11;54.42
72602;DHT22;60644;55.858;37.390;2022-12-07T16:42:58;-6.16;55.28
72602;DHT22;60644;55.858;37.390;2022-12-07T16:45:24;-6.16;55.28
72602;DHT22;60644;55.858;37.390;2022-12-07T16:47:50;-6.19;55.24
72602;DHT22;60644;55.858;37.390;2022-12-07T16:50:15;-6.20;55.35
72602;DHT22;60644;55.858;37.390;2022-12-07T16:52:42;-6.17;55.20
72602;DHT22;60644;55.858;37.390;2022-12-07T16:55:08;-6.17;55.15
72602;DHT22;60644;55.858;37.390;2022-12-07T16:57:34;-6.15;55.41
72602;DHT22;60644;55.858;37.390;2022-12-07T17:00:00;-6.15;55.49
72602;DHT22;60644;55.858;37.390;2022-12-07T17:02:25;-6.15;55.53
72602;DHT22;60644;55.858;37.390;2022-12-07T17:04:51;-6.16;56.04
72602;DHT22;60644;55.858;37.390;2022-12-07T17:07:17;-6.21;55.94
72602;DHT22;60644;55.858;37.390;2022-12-07T17:09:43;-6.20;56.06
72602;DHT22;60644;55.858;37.390;2022-12-07T17:12:09;-6.19;55.99
72602;DHT22;60644;55.858;37.390;2022-12-07T17:14:35;-6.23;56.28
72602;DHT22;60644;55.858;37.390;2022-12-07T17:17:19;-6.31;56.52
72602;DHT22;60644;55.858;37.390;2022-12-07T17:19:45;-6.33;56.47
72602;DHT22;60644;55.858;37.390;2022-12-07T17:22:11;-6.29;56.09
72602;DHT22;60644;55.858;37.390;2022-12-07T17:24:38;-6.29;56.32
72602;DHT22;60644;55.858;37.390;2022-12-07T17:27:04;-6.27;56.16
72602;DHT22;60644;55.858;37.390;2022-12-07T17:29:30;-6.24;56.58
72602;DHT22;60644;55.858;37.390;2022-12-07T17:31:56;-6.23;56.36
72602;DHT22;60644;55.858;37.390;2022-12-07T17:34:21;-6.22;56.02